Time;durP1;ratioP1;P1;durP2;ratioP2;P2;SDS_P1;SDS_P2;PMS_P1;PMS_P2;Temp;Humidity;BMP_temperature;BMP_pressure;BME280_temperature;BME280_humidity;BME280_pressure;Samples;Min_cycle;Max_cycle;Signal;HPM_P1;HPM_P2
2022/02/15 00:02:08;;;;;;;3.55;1.75;;;;;;;6.77;100.00;97481.81;10443961;28;20029;-63
2022/02/15 00:07:11;;;;;;;2.00;1.60;;;;;;;6.79;100.00;97463.78;10451535;28;20048;-62
2022/02/15 00:12:18;;;;;;;2.60;1.77;;;;;;;6.75;100.00;97462.44;10448635;28;20037;-62
2022/02/15 00:17:22;;;;;;;3.17;1.52;;;;;;;6.71;100.00;97455.72;10449419;28;20044;-63
2022/02/15 00:22:25;;;;;;;4.18;1.63;;;;;;;6.66;100.00;97465.22;10450991;28;20556;-61
2022/02/15 00:27:30;;;;;;;2.47;1.90;;;;;;;6.56;100.00;97476.03;10455942;28;20102;-63
2022/02/15 00:32:33;;;;;;;2.83;1.80;;;;;;;6.61;100.00;97476.41;10429499;28;20063;-62
2022/02/15 00:37:37;;;;;;;3.40;2.13;;;;;;;6.59;100.00;97479.22;10423131;28;20060;-61
2022/02/15 00:42:42;;;;;;;3.08;1.90;;;;;;;6.57;100.00;97483.91;10454462;28;20156;-63
2022/02/15 00:47:46;;;;;;;3.45;2.10;;;;;;;6.53;100.00;97485.22;10460654;28;20076;-61
2022/02/15 00:52:49;;;;;;;2.83;1.83;;;;;;;6.54;100.00;97481.56;10457602;28;20072;-63
2022/02/15 00:57:54;;;;;;;4.50;2.00;;;;;;;6.52;100.00;97488.06;10460399;28;20068;-63
2022/02/15 01:02:57;;;;;;;3.92;1.90;;;;;;;6.53;100.00;97482.56;10438492;28;20071;-63
2022/02/15 01:08:01;;;;;;;3.67;1.90;;;;;;;6.39;100.00;97489.34;10463725;28;20049;-60
2022/02/15 01:13:05;;;;;;;2.92;2.00;;;;;;;6.44;100.00;97487.00;10465109;28;20041;-63
2022/02/15 01:18:08;;;;;;;3.72;1.90;;;;;;;6.45;100.00;97491.38;10468740;28;20051;-61
2022/02/15 01:23:11;;;;;;;3.03;1.92;;;;;;;6.52;100.00;97499.59;10439535;28;20129;-63
2022/02/15 01:28:16;;;;;;;3.40;1.95;;;;;;;6.47;100.00;97488.53;10463104;28;20057;-62
2022/02/15 01:33:19;;;;;;;4.10;1.95;;;;;;;6.42;100.00;97491.69;10444243;28;20458;-64
2022/02/15 01:38:22;;;;;;;3.20;1.85;;;;;;;6.44;100.00;97491.53;10400673;28;20157;-61
2022/02/15 01:43:27;;;;;;;5.90;1.90;;;;;;;6.42;100.00;97489.00;10390712;28;20042;-60
2022/02/15 01:48:31;;;;;;;3.33;1.70;;;;;;;6.40;100.00;97506.22;10412521;28;20049;-60
2022/02/15 01:53:35;;;;;;;3.78;1.95;;;;;;;6.40;100.00;97501.72;10399328;28;20493;-64
2022/02/15 01:58:40;;;;;;;2.17;1.85;;;;;;;6.43;100.00;97503.22;10403136;28;20067;-63
2022/02/15 02:03:51;;;;;;;3.58;1.80;;;;;;;6.39;100.00;97500.03;10411165;28;20053;-61
2022/02/15 02:08:55;;;;;;;5.03;2.15;;;;;;;6.38;100.00;97500.19;10415798;28;20049;-60
2022/02/15 02:14:01;;;;;;;3.70;2.13;;;;;;;6.34;100.00;97502.34;10407123;28;20348;-60
2022/02/15 02:19:16;;;;;;;3.53;2.00;;;;;;;6.34;100.00;97488.97;10408334;28;20504;-60
2022/02/15 02:24:22;;;;;;;3.92;1.90;;;;;;;6.34;100.00;97499.66;10410245;28;20045;-63
2022/02/15 02:29:25;;;;;;;4.03;2.00;;;;;;;6.35;100.00;97493.31;10401549;28;20045;-61
2022/02/15 02:34:28;;;;;;;3.20;2.00;;;;;;;6.32;100.00;97489.13;10413602;28;20088;-60
2022/02/15 02:39:37;;;;;;;3.70;1.98;;;;;;;6.23;100.00;97494.56;10463310;28;20394;-60
2022/02/15 02:44:40;;;;;;;3.30;1.90;;;;;;;6.17;100.00;97499.53;10440851;28;20463;-63
2022/02/15 02:49:43;;;;;;;3.85;2.00;;;;;;;6.14;100.00;97502.53;10440054;28;20712;-61
2022/02/15 02:54:48;;;;;;;2.85;2.17;;;;;;;6.10;100.00;97513.72;10464136;28;20577;-59
2022/02/15 02:59:51;;;;;;;3.72;1.90;;;;;;;6.07;100.00;97522.84;10465556;28;20497;-65
2022/02/15 03:05:01;;;;;;;3.80;2.08;;;;;;;6.05;100.00;97514.19;10443970;28;20531;-63
2022/02/15 03:10:07;;;;;;;3.28;2.05;;;;;;;6.00;100.00;97506.59;10440845;28;20833;-62
2022/02/15 03:15:12;;;;;;;3.88;2.30;;;;;;;5.93;100.00;97518.06;10449546;28;20045;-63
2022/02/15 03:20:17;;;;;;;3.22;1.85;;;;;;;5.85;100.00;97529.50;10448421;28;20045;-62
2022/02/15 03:25:21;;;;;;;3.95;2.30;;;;;;;5.78;100.00;97533.78;10445838;28;20136;-61
2022/02/15 03:30:26;;;;;;;3.38;2.17;;;;;;;5.73;100.00;97534.22;10470521;28;20042;-66
2022/02/15 03:35:30;;;;;;;4.63;2.25;;;;;;;5.69;100.00;97538.22;10435767;28;20052;-58
2022/02/15 03:46:28;;;;;;;3.38;2.03;;;;;;;5.60;100.00;97556.00;10467672;28;20064;-62
2022/02/15 03:51:31;;;;;;;4.72;2.25;;;;;;;5.55;100.00;97556.44;10438472;28;20152;-65
2022/02/15 03:56:36;;;;;;;4.13;2.20;;;;;;;5.52;100.00;97555.91;10451692;28;20119;-64
2022/02/15 04:01:40;;;;;;;3.53;2.10;;;;;;;5.49;100.00;97564.22;10432199;28;20055;-63
2022/02/15 04:06:44;;;;;;;6.82;2.13;;;;;;;5.46;100.00;97565.38;10429945;28;20067;-61
2022/02/15 04:11:49;;;;;;;3.22;1.98;;;;;;;5.43;100.00;97567.47;10439598;28;20049;-63
2022/02/15 04:16:57;;;;;;;2.97;1.98;;;;;;;5.41;100.00;97570.31;10436230;28;20048;-60
2022/02/15 04:22:01;;;;;;;3.65;1.92;;;;;;;5.40;100.00;97573.97;10436642;28;20097;-61
2022/02/15 04:27:09;;;;;;;3.60;1.90;;;;;;;5.39;100.00;97580.31;10454465;28;20045;-65
2022/02/15 04:32:14;;;;;;;2.92;1.85;;;;;;;5.36;100.00;97583.25;10454048;28;20083;-62
2022/02/15 04:37:18;;;;;;;3.78;2.28;;;;;;;5.27;100.00;97590.34;10458751;28;20456;-62
2022/02/15 04:42:23;;;;;;;3.10;1.85;;;;;;;5.19;100.00;97608.94;10439291;28;20045;-59
2022/02/15 04:47:32;;;;;;;3.63;2.10;;;;;;;5.21;100.00;97614.97;10441521;28;20044;-59
2022/02/15 04:52:35;;;;;;;3.50;2.03;;;;;;;5.28;100.00;97607.22;10465808;28;20045;-61
2022/02/15 04:57:42;;;;;;;4.13;2.05;;;;;;;5.23;100.00;97626.34;10449566;28;20483;-60
2022/02/15 05:02:47;;;;;;;6.07;2.10;;;;;;;5.19;100.00;97625.81;10452540;28;20444;-67
2022/02/15 05:07:51;;;;;;;4.82;2.10;;;;;;;5.12;100.00;97629.19;10451876;28;20052;-59
2022/02/15 05:12:55;;;;;;;2.08;1.60;;;;;;;5.08;100.00;97644.69;10469102;28;20308;-60
2022/02/15 05:18:19;;;;;;;3.75;1.90;;;;;;;5.04;100.00;97637.94;10474563;28;20049;-64
2022/02/15 05:23:29;;;;;;;2.95;1.80;;;;;;;5.04;100.00;97643.28;10476615;28;20056;-65
2022/02/15 05:28:35;;;;;;;3.55;1.88;;;;;;;4.97;100.00;97644.84;10461366;28;20048;-66
2022/02/15 05:33:44;;;;;;;3.42;1.85;;;;;;;5.02;100.00;97639.91;10463086;28;20386;-59
2022/02/15 05:38:50;;;;;;;3.40;1.60;;;;;;;4.99;100.00;97656.22;10480752;28;20071;-66
2022/02/15 05:43:57;;;;;;;4.15;1.77;;;;;;;4.96;100.00;97651.19;10482266;28;20036;-62
2022/02/15 05:49:02;;;;;;;4.03;1.60;;;;;;;4.90;100.00;97663.28;10453512;28;20044;-60
2022/02/15 05:54:35;;;;;;;4.45;1.80;;;;;;;4.86;100.00;97659.19;10458023;28;20540;-62
2022/02/15 05:59:49;;;;;;;3.40;1.95;;;;;;;4.82;100.00;97661.31;10447377;28;20044;-62
2022/02/15 06:04:58;;;;;;;5.22;1.98;;;;;;;4.77;100.00;97668.91;10476177;28;20462;-61
2022/02/15 06:10:07;;;;;;;4.13;1.90;;;;;;;4.74;100.00;97669.22;10453741;28;20055;-62
2022/02/15 06:15:17;;;;;;;3.85;2.20;;;;;;;4.70;100.00;97679.34;10457731;28;20449;-60
2022/02/15 06:20:53;;;;;;;4.70;2.67;;;;;;;4.64;100.00;97685.22;10447252;28;20135;-62
2022/02/15 06:26:01;;;;;;;4.07;2.20;;;;;;;4.61;100.00;97686.34;10452206;28;20420;-66
2022/02/15 06:31:20;;;;;;;5.95;2.55;;;;;;;4.59;100.00;97706.13;10451270;28;20390;-59
2022/02/15 06:36:23;;;;;;;6.05;2.20;;;;;;;4.54;100.00;97711.88;10452818;28;20045;-57
2022/02/15 06:41:28;;;;;;;3.83;2.30;;;;;;;4.49;100.00;97708.81;10452845;28;20062;-62
2022/02/15 06:46:45;;;;;;;5.22;2.53;;;;;;;4.48;100.00;97712.47;10457237;28;20139;-61
2022/02/15 06:51:56;;;;;;;3.85;2.63;;;;;;;4.45;100.00;97718.06;10449931;28;20129;-55
2022/02/15 06:56:59;;;;;;;5.20;2.80;;;;;;;4.41;100.00;97722.03;10448815;28;20509;-62
2022/02/15 07:02:08;;;;;;;5.75;2.58;;;;;;;4.35;100.00;97715.38;10445390;28;20140;-61
2022/02/15 07:07:14;;;;;;;5.88;2.28;;;;;;;4.35;100.00;97725.22;10448708;28;20048;-62
2022/02/15 07:12:24;;;;;;;5.57;2.42;;;;;;;4.34;100.00;97726.22;10449270;28;20124;-61
2022/02/15 07:17:49;;;;;;;4.72;2.40;;;;;;;4.36;100.00;97732.25;10470239;28;20052;-60
2022/02/15 07:22:58;;;;;;;4.43;2.28;;;;;;;4.31;100.00;97738.00;10452447;28;20072;-59
2022/02/15 07:28:28;;;;;;;5.82;2.15;;;;;;;4.28;100.00;97755.13;10451611;28;20056;-59
2022/02/15 07:33:33;;;;;;;6.45;2.05;;;;;;;4.27;100.00;97753.44;10448264;23;20061;-78
2022/02/15 07:38:36;;;;;;;5.88;2.00;;;;;;;4.30;100.00;97768.31;10390063;28;20417;-78
2022/02/15 07:43:39;;;;;;;5.15;2.00;;;;;;;4.36;100.00;97764.25;10411454;22;20417;-66
2022/02/15 07:48:50;;;;;;;3.88;1.80;;;;;;;4.41;100.00;97770.03;10373901;28;20049;-60
2022/02/15 07:53:54;;;;;;;3.97;1.80;;;;;;;4.45;100.00;97771.41;10388951;28;20431;-67
2022/02/15 07:58:58;;;;;;;5.03;1.85;;;;;;;4.45;100.00;97777.59;10383829;28;20166;-59
2022/02/15 08:04:03;;;;;;;6.07;2.03;;;;;;;4.51;100.00;97786.03;10379584;28;20048;-64
2022/02/15 08:09:14;;;;;;;3.22;1.90;;;;;;;4.55;100.00;97782.94;10380496;28;20045;-60
2022/02/15 08:14:17;;;;;;;4.57;2.17;;;;;;;4.59;100.00;97786.16;10376236;28;20137;-57
2022/02/15 08:19:26;;;;;;;5.88;2.70;;;;;;;4.70;100.00;97790.53;10371440;28;20049;-69
2022/02/15 08:24:31;;;;;;;10.70;5.78;;;;;;;4.83;100.00;97800.91;10373068;28;20041;-67
2022/02/15 08:29:34;;;;;;;9.57;3.78;;;;;;;4.99;100.00;97811.06;10379325;28;20049;-66
2022/02/15 08:34:39;;;;;;;6.78;3.40;;;;;;;5.17;100.00;97805.84;10380668;28;20148;-60
2022/02/15 08:39:43;;;;;;;6.20;2.72;;;;;;;5.32;100.00;97809.75;10374962;28;20061;-58
2022/02/15 08:44:49;;;;;;;4.30;2.30;;;;;;;5.45;100.00;97809.47;10377249;28;20053;-56
2022/02/15 08:49:54;;;;;;;4.45;2.47;;;;;;;5.55;100.00;97810.28;10372332;28;20049;-58
2022/02/15 08:54:58;;;;;;;3.97;2.50;;;;;;;5.72;100.00;97807.81;10370609;28;20394;-62
2022/02/15 09:00:01;;;;;;;4.00;2.25;;;;;;;5.85;100.00;97805.66;10366247;28;20054;-62
2022/02/15 09:05:07;;;;;;;4.63;2.35;;;;;;;5.95;100.00;97810.13;10374363;28;20120;-67
2022/02/15 09:10:11;;;;;;;5.38;2.20;;;;;;;6.09;100.00;97811.53;10367892;28;20088;-60
2022/02/15 09:15:39;;;;;;;3.72;2.03;;;;;;;6.23;100.00;97812.84;10367532;28;20052;-64
2022/02/15 09:20:43;;;;;;;4.20;2.05;;;;;;;6.39;100.00;97812.19;10375273;28;20129;-60
2022/02/15 09:25:47;;;;;;;7.03;2.00;;;;;;;6.51;100.00;97807.50;10360585;28;20478;-60
2022/02/15 09:30:54;;;;;;;3.35;2.10;;;;;;;6.61;100.00;97814.44;10359008;28;20663;-59
2022/02/15 09:36:02;;;;;;;5.20;2.30;;;;;;;6.73;100.00;97822.25;10374438;28;21467;-63
2022/02/15 09:41:08;;;;;;;4.18;2.25;;;;;;;6.90;100.00;97826.81;10387455;28;20046;-69
2022/02/15 09:46:22;;;;;;;4.47;2.20;;;;;;;7.07;100.00;97817.09;10377623;28;20046;-58
2022/02/15 09:51:28;;;;;;;4.00;2.42;;;;;;;7.27;100.00;97814.22;10390195;28;20118;-63
2022/02/15 09:56:32;;;;;;;6.03;2.38;;;;;;;7.23;100.00;97807.50;10393367;28;20041;-64
2022/02/15 10:01:38;;;;;;;4.05;2.13;;;;;;;7.27;100.00;97819.56;10383371;28;20052;-63
2022/02/15 10:06:43;;;;;;;4.57;2.10;;;;;;;7.28;100.00;97820.44;10384204;28;20140;-63
2022/02/15 10:11:47;;;;;;;5.70;2.30;;;;;;;7.28;100.00;97831.97;10381793;28;20069;-63
2022/02/15 10:16:52;;;;;;;4.50;2.30;;;;;;;7.40;100.00;97824.56;10389369;28;20049;-63
2022/02/15 10:21:58;;;;;;;4.10;2.00;;;;;;;7.52;100.00;97825.13;10377698;28;20546;-62
2022/02/15 10:27:02;;;;;;;3.85;2.00;;;;;;;7.66;100.00;97824.56;10378786;28;20042;-63
2022/02/15 10:32:11;;;;;;;3.88;2.05;;;;;;;7.89;100.00;97818.66;10374631;28;20045;-63
2022/02/15 10:37:17;;;;;;;3.22;1.65;;;;;;;8.16;100.00;97816.78;10371128;28;20077;-61
2022/02/15 10:42:22;;;;;;;4.53;1.90;;;;;;;8.49;100.00;97811.56;10380671;28;20080;-63
2022/02/15 10:47:28;;;;;;;4.25;1.92;;;;;;;8.71;100.00;97811.97;10373475;28;20056;-63
2022/02/15 10:52:33;;;;;;;3.33;1.40;;;;;;;8.90;100.00;97800.91;10373253;28;20124;-63
2022/02/15 10:57:37;;;;;;;3.17;1.63;;;;;;;8.84;100.00;97801.59;10371326;28;20057;-63
2022/02/15 11:02:42;;;;;;;3.35;1.42;;;;;;;8.70;100.00;97804.91;10370692;28;20077;-63
2022/02/15 11:07:47;;;;;;;5.40;1.30;;;;;;;8.61;100.00;97812.09;10395808;28;20048;-61
2022/02/15 11:12:53;;;;;;;3.50;1.40;;;;;;;8.58;100.00;97801.72;10387287;28;20092;-63
2022/02/15 11:17:59;;;;;;;3.75;1.63;;;;;;;8.44;100.00;97806.66;10389698;28;20041;-63
2022/02/15 11:23:03;;;;;;;2.95;1.27;;;;;;;8.36;100.00;97813.84;10384362;28;20041;-62
2022/02/15 11:28:11;;;;;;;4.03;1.40;;;;;;;8.26;100.00;97820.19;10383491;28;20148;-63
2022/02/15 11:33:20;;;;;;;2.85;1.70;;;;;;;7.86;100.00;97827.03;10390725;28;20088;-63
2022/02/15 11:38:25;;;;;;;3.35;1.20;;;;;;;7.64;100.00;97826.56;10391887;28;20120;-62
2022/02/15 11:43:29;;;;;;;2.05;1.30;;;;;;;7.47;100.00;97816.69;10376669;28;20124;-63
2022/02/15 11:48:36;;;;;;;1.63;1.10;;;;;;;7.41;100.00;97820.84;10391810;28;20088;-66
2022/02/15 11:53:44;;;;;;;3.20;1.30;;;;;;;7.39;100.00;97823.69;10378293;28;20053;-63
2022/02/15 11:58:48;;;;;;;1.73;1.10;;;;;;;7.41;100.00;97828.88;10374455;28;20124;-62
2022/02/15 12:03:51;;;;;;;2.17;1.40;;;;;;;7.38;100.00;97835.41;10380986;28;20505;-63
2022/02/15 12:08:56;;;;;;;1.50;1.15;;;;;;;7.30;100.00;97846.06;10383847;28;20060;-63
2022/02/15 12:14:06;;;;;;;1.73;1.20;;;;;;;7.32;100.00;97843.22;10378941;28;20038;-60
2022/02/15 12:19:09;;;;;;;2.22;1.30;;;;;;;7.09;100.00;97843.69;10378379;28;20536;-60
2022/02/15 12:24:14;;;;;;;1.55;1.35;;;;;;;6.93;100.00;97855.97;10375909;28;20084;-60
2022/02/15 12:29:28;;;;;;;2.13;1.70;;;;;;;6.78;100.00;97871.69;10373086;28;20056;-58
2022/02/15 12:34:32;;;;;;;2.33;1.30;;;;;;;6.70;100.00;97879.63;10379443;28;20426;-69
2022/02/15 12:39:38;;;;;;;1.30;1.20;;;;;;;6.61;100.00;97878.69;10373771;28;20128;-61
2022/02/15 12:44:43;;;;;;;1.55;1.45;;;;;;;6.19;100.00;97878.31;10373429;28;20147;-58
2022/02/15 12:49:46;;;;;;;1.73;1.60;;;;;;;6.05;100.00;97887.66;10371728;28;20049;-56
2022/02/15 12:54:52;;;;;;;1.65;1.40;;;;;;;6.00;100.00;97893.47;10369578;28;20468;-55
2022/02/15 12:59:57;;;;;;;1.67;1.15;;;;;;;6.02;100.00;97891.50;10367214;28;20120;-62
2022/02/15 13:05:00;;;;;;;0.90;0.80;;;;;;;6.25;100.00;97899.16;10370518;28;20045;-52
2022/02/15 13:10:06;;;;;;;2.05;0.60;;;;;;;6.39;100.00;97890.66;10370795;28;20132;-60
2022/02/15 13:15:10;;;;;;;0.63;0.60;;;;;;;6.54;100.00;97887.47;10371602;28;20457;-64
2022/02/15 13:20:16;;;;;;;0.60;0.60;;;;;;;6.88;100.00;97893.06;10369448;28;20517;-60
2022/02/15 13:25:21;;;;;;;1.00;0.80;;;;;;;6.83;100.00;97886.47;10374700;28;20041;-61
2022/02/15 13:30:27;;;;;;;0.95;0.90;;;;;;;6.74;100.00;97875.69;10383868;28;20490;-57
2022/02/15 13:35:32;;;;;;;1.70;1.00;;;;;;;6.66;100.00;97874.72;10388816;28;20041;-55
2022/02/15 13:40:37;;;;;;;1.15;1.05;;;;;;;6.65;100.00;97857.81;10381728;28;20112;-58
2022/02/15 13:45:40;;;;;;;1.60;1.20;;;;;;;6.63;100.00;97854.47;10387850;28;20104;-60
2022/02/15 13:50:44;;;;;;;1.73;1.33;;;;;;;6.62;100.00;97860.81;10385565;28;20051;-60
2022/02/15 13:55:49;;;;;;;1.38;1.27;;;;;;;6.68;100.00;97868.22;10392201;28;20120;-63
2022/02/15 14:00:52;;;;;;;2.05;1.40;;;;;;;6.74;100.00;97877.50;10379532;28;20072;-65
2022/02/15 14:05:55;;;;;;;2.00;1.40;;;;;;;6.84;100.00;97870.25;10387195;28;20115;-58
2022/02/15 14:11:00;;;;;;;1.85;1.30;;;;;;;7.02;100.00;97864.06;10381884;28;20042;-59
2022/02/15 14:16:04;;;;;;;1.10;1.00;;;;;;;7.25;100.00;97870.66;10382880;28;20054;-58
2022/02/15 14:21:07;;;;;;;1.15;1.05;;;;;;;7.49;100.00;97862.97;10379739;28;20425;-61
2022/02/15 14:26:13;;;;;;;1.60;1.30;;;;;;;7.47;100.00;97857.75;10376651;28;20070;-60
2022/02/15 14:31:16;;;;;;;2.80;2.53;;;;;;;7.51;100.00;97850.25;10376987;28;20048;-59
2022/02/15 14:36:19;;;;;;;1.70;1.13;;;;;;;7.44;100.00;97846.53;10375868;28;20124;-58
2022/02/15 14:41:24;;;;;;;2.72;1.30;;;;;;;7.46;100.00;97845.34;10374407;28;20063;-58
2022/02/15 14:46:27;;;;;;;2.10;1.30;;;;;;;7.50;100.00;97851.25;10374592;28;20069;-59
2022/02/15 14:51:31;;;;;;;1.70;1.35;;;;;;;7.50;100.00;97861.97;10378965;28;20120;-59
2022/02/15 14:56:36;;;;;;;2.80;1.10;;;;;;;7.52;100.00;97868.00;10378556;28;20045;-59
2022/02/15 15:01:39;;;;;;;1.38;0.85;;;;;;;7.82;100.00;97866.72;10369753;28;20049;-60
2022/02/15 15:06:42;;;;;;;1.63;0.80;;;;;;;7.81;100.00;97848.94;10370241;28;20042;-60
2022/02/15 15:11:46;;;;;;;0.70;0.70;;;;;;;7.86;100.00;97851.16;10363020;28;20078;-59
2022/02/15 15:16:50;;;;;;;1.30;1.13;;;;;;;8.15;100.00;97847.31;10364677;28;20121;-60
2022/02/15 15:21:59;;;;;;;1.10;0.80;;;;;;;8.15;100.00;97840.09;10368482;28;20495;-60
2022/02/15 15:27:04;;;;;;;1.02;0.85;;;;;;;7.99;100.00;97840.84;10379046;28;20405;-60
2022/02/15 15:32:07;;;;;;;0.70;0.70;;;;;;;7.93;100.00;97843.31;10376226;28;20057;-58
2022/02/15 15:37:10;;;;;;;1.58;0.90;;;;;;;7.83;100.00;97846.09;10387027;28;20045;-60
2022/02/15 15:42:15;;;;;;;0.88;0.68;;;;;;;7.88;100.00;97848.34;10388037;28;20120;-60
2022/02/15 15:47:19;;;;;;;1.63;0.90;;;;;;;7.76;100.00;97845.06;10370643;28;20050;-58
2022/02/15 15:52:25;;;;;;;0.80;0.80;;;;;;;7.65;100.00;97838.09;10384315;28;20156;-60
2022/02/15 15:57:31;;;;;;;0.82;0.80;;;;;;;7.45;100.00;97826.75;10374720;28;20088;-59
2022/02/15 16:02:34;;;;;;;1.10;1.00;;;;;;;7.27;100.00;97830.28;10374262;28;20069;-60
2022/02/15 16:07:38;;;;;;;1.40;0.90;;;;;;;7.12;100.00;97835.38;10382834;28;20080;-60
2022/02/15 16:12:42;;;;;;;1.33;1.00;;;;;;;7.04;100.00;97830.78;10382928;28;20141;-62
2022/02/15 16:17:45;;;;;;;1.48;1.10;;;;;;;7.03;100.00;97839.81;10373286;28;20776;-62
2022/02/15 16:22:49;;;;;;;2.40;1.85;;;;;;;6.91;100.00;97839.19;10372956;28;20045;-61
2022/02/15 16:27:53;;;;;;;2.05;1.33;;;;;;;6.80;100.00;97855.50;10373697;28;20120;-62
2022/02/15 16:32:59;;;;;;;2.35;1.25;;;;;;;6.67;100.00;97847.81;10373536;28;20054;-61
2022/02/15 16:38:30;;;;;;;1.00;1.00;;;;;;;6.48;100.00;97852.28;10371531;28;20116;-62
2022/02/15 16:43:34;;;;;;;1.40;1.00;;;;;;;6.44;100.00;97858.09;10366641;28;20050;-64
2022/02/15 16:48:38;;;;;;;1.23;1.05;;;;;;;6.30;100.00;97868.28;10368829;28;20555;-62
2022/02/15 16:53:41;;;;;;;1.77;1.13;;;;;;;6.20;100.00;97880.00;10368875;28;20048;-64
2022/02/15 16:58:45;;;;;;;3.15;1.70;;;;;;;6.01;100.00;97887.97;10368437;28;20042;-63
2022/02/15 17:03:48;;;;;;;1.80;1.70;;;;;;;5.84;100.00;97892.19;10367032;28;20064;-63
2022/02/15 17:08:52;;;;;;;1.88;1.50;;;;;;;5.78;100.00;97895.47;10369727;28;20092;-64
2022/02/15 17:13:56;;;;;;;1.30;1.20;;;;;;;5.74;100.00;97886.03;10362934;28;20590;-64
2022/02/15 17:19:01;;;;;;;1.60;1.38;;;;;;;5.70;100.00;97881.97;10360033;28;20577;-63
2022/02/15 17:24:04;;;;;;;1.60;1.35;;;;;;;5.62;100.00;97871.13;10375031;28;20059;-63
2022/02/15 17:29:09;;;;;;;2.10;1.60;;;;;;;5.54;100.00;97879.88;10368140;28;20120;-66
2022/02/15 17:34:12;;;;;;;1.50;1.40;;;;;;;5.44;100.00;97885.25;10387148;28;20391;-59
2022/02/15 17:39:15;;;;;;;1.50;1.40;;;;;;;5.29;100.00;97883.97;10388061;28;20055;-56
2022/02/15 17:44:22;;;;;;;1.30;1.20;;;;;;;5.22;100.00;97886.38;10379506;28;20057;-61
2022/02/15 17:49:25;;;;;;;1.23;1.05;;;;;;;5.23;100.00;97899.56;10381817;28;21527;-57
2022/02/15 17:54:30;;;;;;;0.85;0.85;;;;;;;5.14;100.00;97894.25;10386922;28;20429;-63
2022/02/15 17:59:35;;;;;;;1.10;1.00;;;;;;;5.04;100.00;97900.44;10383115;28;20045;-62
2022/02/15 18:04:38;;;;;;;1.10;1.00;;;;;;;4.94;100.00;97904.88;10386098;28;20049;-63
2022/02/15 18:09:42;;;;;;;1.13;1.00;;;;;;;4.85;100.00;97895.91;10383720;28;20638;-63
2022/02/15 18:14:46;;;;;;;1.30;1.20;;;;;;;4.78;100.00;97890.28;10382446;28;20099;-64
2022/02/15 18:19:49;;;;;;;1.52;1.33;;;;;;;4.75;100.00;97895.03;10374238;28;20041;-64
2022/02/15 18:24:54;;;;;;;1.92;1.30;;;;;;;4.72;100.00;97880.13;10379807;28;20042;-63
2022/02/15 18:29:58;;;;;;;2.20;1.45;;;;;;;4.73;100.00;97881.81;10373721;28;20485;-61
2022/02/15 18:35:02;;;;;;;2.28;1.40;;;;;;;4.70;100.00;97873.25;10381023;28;20450;-63
2022/02/15 18:40:06;;;;;;;2.15;1.95;;;;;;;4.64;100.00;97877.31;10368959;28;20073;-65
2022/02/15 18:45:15;;;;;;;3.40;2.50;;;;;;;4.57;100.00;97871.69;10374685;28;20133;-62
2022/02/15 18:50:18;;;;;;;2.50;2.30;;;;;;;4.50;100.00;97881.22;10370524;28;20160;-64
2022/02/15 18:55:23;;;;;;;3.00;2.28;;;;;;;4.37;100.00;97872.63;10368661;28;20040;-65
2022/02/15 19:00:28;;;;;;;2.60;2.40;;;;;;;4.21;100.00;97881.13;10366311;28;20049;-61
2022/02/15 19:05:33;;;;;;;5.47;4.95;;;;;;;4.07;100.00;97884.97;10371719;28;20057;-60
2022/02/15 19:10:36;;;;;;;3.75;3.17;;;;;;;4.03;100.00;97883.56;10364337;28;20101;-63
2022/02/15 19:15:41;;;;;;;3.10;2.80;;;;;;;3.93;100.00;97884.38;10369962;28;20148;-61
2022/02/15 19:20:44;;;;;;;8.38;7.47;;;;;;;3.87;100.00;97879.56;10376313;28;20454;-62
2022/02/15 19:25:47;;;;;;;4.10;3.70;;;;;;;3.77;100.00;97884.81;10382956;28;20050;-61
2022/02/15 19:30:54;;;;;;;2.92;2.67;;;;;;;3.67;100.00;97883.91;10377699;28;20144;-62
2022/02/15 19:35:57;;;;;;;3.75;2.75;;;;;;;3.62;100.00;97889.66;10393831;28;20057;-62
2022/02/15 19:41:00;;;;;;;2.35;2.15;;;;;;;3.54;100.00;97881.47;10385965;28;20116;-62
2022/02/15 19:46:05;;;;;;;1.92;1.60;;;;;;;3.35;100.00;97888.34;10388428;28;20054;-62
2022/02/15 19:51:08;;;;;;;1.23;1.10;;;;;;;3.46;100.00;97891.94;10379072;28;20144;-62
2022/02/15 19:56:12;;;;;;;1.50;1.20;;;;;;;3.47;100.00;97885.63;10381067;28;20038;-62
2022/02/15 20:01:17;;;;;;;1.45;1.20;;;;;;;3.49;100.00;97889.84;10376228;28;20064;-64
2022/02/15 20:06:20;;;;;;;3.53;1.30;;;;;;;3.58;100.00;97885.56;10380467;28;20235;-64
2022/02/15 20:11:24;;;;;;;1.85;1.15;;;;;;;3.68;100.00;97881.16;10370653;28;20135;-63
2022/02/15 20:16:28;;;;;;;2.55;1.10;;;;;;;3.82;100.00;97871.97;10377059;28;20431;-62
2022/02/15 20:21:32;;;;;;;1.25;1.13;;;;;;;3.83;100.00;97870.13;10372602;28;20531;-61
2022/02/15 20:26:35;;;;;;;1.77;1.17;;;;;;;3.81;100.00;97864.94;10374026;28;20041;-63
2022/02/15 20:31:42;;;;;;;1.80;1.10;;;;;;;3.80;100.00;97857.91;10366180;28;20200;-63
2022/02/15 20:36:46;;;;;;;1.63;1.10;;;;;;;3.81;100.00;97858.78;10368253;28;20395;-63
2022/02/15 20:41:49;;;;;;;1.40;1.20;;;;;;;3.74;100.00;97849.63;10367782;28;20124;-64
2022/02/15 20:46:53;;;;;;;1.45;1.20;;;;;;;3.73;100.00;97840.78;10369045;28;20865;-62
2022/02/15 20:51:58;;;;;;;3.05;1.20;;;;;;;3.66;100.00;97827.16;10367989;28;20110;-64
2022/02/15 20:57:01;;;;;;;1.63;1.17;;;;;;;3.65;100.00;97828.13;10371183;28;20042;-63
2022/02/15 21:02:06;;;;;;;2.55;1.10;;;;;;;3.59;100.00;97828.63;10363458;28;20042;-63
2022/02/15 21:07:10;;;;;;;1.13;0.90;;;;;;;3.61;100.00;97815.22;10363778;28;20096;-62
2022/02/15 21:12:13;;;;;;;1.63;1.00;;;;;;;3.54;100.00;97818.38;10374218;28;20037;-62
2022/02/15 21:17:18;;;;;;;2.53;1.05;;;;;;;3.50;100.00;97808.97;10375618;28;20036;-63
2022/02/15 21:22:25;;;;;;;1.67;1.00;;;;;;;3.49;100.00;97806.44;10389584;28;20045;-62
2022/02/15 21:27:31;;;;;;;1.25;0.90;;;;;;;3.39;100.00;97801.91;10386338;28;20061;-63
2022/02/15 21:32:38;;;;;;;1.98;0.85;;;;;;;3.49;100.00;97809.09;10394237;28;20045;-62
2022/02/15 21:37:41;;;;;;;3.72;0.80;;;;;;;3.63;100.00;97798.09;10379680;28;20510;-61
2022/02/15 21:42:44;;;;;;;1.85;0.88;;;;;;;3.81;100.00;97797.50;10385010;28;20041;-62
2022/02/15 21:47:52;;;;;;;1.63;0.90;;;;;;;3.91;100.00;97798.38;10391985;28;20077;-62
2022/02/15 21:52:59;;;;;;;1.67;0.80;;;;;;;3.96;100.00;97785.47;10394397;28;20045;-62
2022/02/15 21:58:05;;;;;;;1.90;0.98;;;;;;;3.95;100.00;97780.28;10394548;28;20053;-60
2022/02/15 22:03:10;;;;;;;2.33;1.00;;;;;;;3.94;100.00;97767.94;10394364;28;20084;-62
2022/02/15 22:08:13;;;;;;;3.70;1.10;;;;;;;3.98;100.00;97769.38;10390909;28;20037;-61
2022/02/15 22:13:17;;;;;;;2.08;1.10;;;;;;;4.04;100.00;97759.97;10390519;28;20065;-60
2022/02/15 22:18:42;;;;;;;2.72;1.10;;;;;;;4.09;100.00;97749.75;10390827;28;20421;-62
2022/02/15 22:23:45;;;;;;;3.47;1.10;;;;;;;4.12;100.00;97744.16;10393254;28;20045;-61
2022/02/15 22:28:50;;;;;;;1.63;0.88;;;;;;;4.16;100.00;97734.91;10391723;28;20041;-62
2022/02/15 22:33:54;;;;;;;2.22;1.00;;;;;;;4.15;100.00;97731.38;10393687;28;20076;-63
2022/02/15 22:38:59;;;;;;;1.75;1.05;;;;;;;4.11;100.00;97723.78;10389054;28;20041;-62
2022/02/15 22:44:03;;;;;;;1.50;0.95;;;;;;;4.09;100.00;97725.75;10384430;28;20092;-62
2022/02/15 22:54:28;;;;;;;2.28;1.15;;;;;;;4.03;100.00;97702.31;10383390;28;20042;-63
2022/02/15 22:59:32;;;;;;;2.35;1.10;;;;;;;4.03;100.00;97691.66;10383261;28;20388;-61
2022/02/15 23:04:37;;;;;;;2.00;1.10;;;;;;;4.04;100.00;97690.69;10392569;28;20460;-61
2022/02/15 23:20:46;;;;;;;4.30;1.15;;;;;;;4.09;100.00;97669.78;10236071;28;20069;-62
2022/02/15 23:25:51;;;;;;;2.67;1.23;;;;;;;4.22;100.00;97656.19;10349668;28;20053;-59
2022/02/15 23:30:55;;;;;;;2.47;1.00;;;;;;;4.30;100.00;97651.81;10393490;28;20700;-57
2022/02/15 23:36:00;;;;;;;2.90;1.00;;;;;;;4.38;100.00;97643.13;10387236;28;20424;-61
2022/02/15 23:41:03;;;;;;;3.53;1.20;;;;;;;4.45;100.00;97643.41;10381874;28;21096;-58
2022/02/15 23:46:06;;;;;;;4.70;1.30;;;;;;;4.45;100.00;97641.59;10390980;28;20234;-60
2022/02/15 23:57:16;;;;;;;4.15;1.10;;;;;;;4.50;100.00;97618.97;10382105;28;20548;-60
